createdAt,value
2018-06-21T00:02:26.762Z,21.40
2018-06-21T00:04:56.038Z,21.40
2018-06-21T00:07:25.312Z,21.60
2018-06-21T00:09:54.500Z,21.30
2018-06-21T00:12:23.737Z,21.30
2018-06-21T00:14:52.963Z,21.40
2018-06-21T00:17:22.373Z,21.50
2018-06-21T00:19:51.543Z,21.50
2018-06-21T00:22:20.746Z,21.50
2018-06-21T00:24:50.011Z,21.20
2018-06-21T00:27:19.300Z,21.40
2018-06-21T00:29:48.592Z,21.30
2018-06-21T00:32:17.898Z,21.30
2018-06-21T00:34:47.315Z,21.20
2018-06-21T00:37:16.588Z,21.30
2018-06-21T00:39:45.858Z,21.40
2018-06-21T00:42:15.086Z,21.30
2018-06-21T00:44:44.307Z,21.40
2018-06-21T00:47:13.597Z,21.00
2018-06-21T00:49:42.816Z,21.00
2018-06-21T00:52:12.053Z,21.20
2018-06-21T00:54:41.369Z,21.40
2018-06-21T00:57:10.664Z,21.20
2018-06-21T00:59:39.982Z,20.50
2018-06-21T01:02:09.185Z,20.50
2018-06-21T01:04:38.356Z,20.70
2018-06-21T01:07:07.617Z,20.80
2018-06-21T01:09:36.836Z,21.00
2018-06-21T01:12:06.048Z,20.80
2018-06-21T01:14:35.311Z,20.90
2018-06-21T01:17:04.488Z,20.40
2018-06-21T01:19:33.672Z,20.60
2018-06-21T01:22:02.854Z,20.50
2018-06-21T01:24:32.063Z,20.20
2018-06-21T01:27:01.272Z,20.50
2018-06-21T01:29:30.505Z,20.40
2018-06-21T01:31:59.734Z,20.30
2018-06-21T01:34:28.905Z,20.30
2018-06-21T01:36:58.111Z,20.00
2018-06-21T01:39:27.323Z,20.20
2018-06-21T01:41:56.515Z,20.40
2018-06-21T01:44:25.839Z,20.10
2018-06-21T01:46:55.538Z,20.40
2018-06-21T01:49:24.735Z,20.30
2018-06-21T01:51:53.985Z,20.20
2018-06-21T01:54:23.240Z,20.20
2018-06-21T01:56:52.507Z,20.20
2018-06-21T01:59:21.698Z,20.10
2018-06-21T02:01:50.890Z,20.20
2018-06-21T02:04:20.107Z,20.00
2018-06-21T02:06:49.265Z,20.00
2018-06-21T02:09:18.467Z,20.00
2018-06-21T02:11:47.691Z,19.80
2018-06-21T02:14:16.886Z,19.80
2018-06-21T02:16:46.055Z,19.80
2018-06-21T02:19:15.225Z,19.90
2018-06-21T02:21:44.472Z,19.50
2018-06-21T02:24:13.765Z,19.70
2018-06-21T02:26:43.020Z,19.30
2018-06-21T02:29:12.278Z,19.60
2018-06-21T02:31:41.479Z,19.60
2018-06-21T02:34:10.765Z,20.00
2018-06-21T02:36:39.944Z,19.80
2018-06-21T02:39:09.906Z,20.00
2018-06-21T02:41:39.127Z,20.10
2018-06-21T02:44:08.379Z,20.30
2018-06-21T02:46:37.619Z,20.20
2018-06-21T02:49:06.814Z,20.10
2018-06-21T02:51:35.981Z,20.30
2018-06-21T02:54:05.215Z,20.40
2018-06-21T02:56:34.428Z,20.30
2018-06-21T02:59:03.636Z,20.10
2018-06-21T03:01:32.856Z,20.20
2018-06-21T03:04:02.063Z,20.30
2018-06-21T03:06:31.195Z,20.30
2018-06-21T03:09:00.444Z,19.90
2018-06-21T03:11:29.598Z,19.50
2018-06-21T03:13:58.805Z,19.40
2018-06-21T03:16:27.975Z,19.20
2018-06-21T03:18:57.137Z,19.30
2018-06-21T03:21:26.294Z,19.30
2018-06-21T03:23:55.664Z,19.40
2018-06-21T03:26:24.846Z,19.70
2018-06-21T03:28:54.042Z,19.60
2018-06-21T03:31:23.518Z,19.90
2018-06-21T03:33:52.780Z,19.80
2018-06-21T03:36:21.984Z,20.00
2018-06-21T03:38:51.219Z,20.00
2018-06-21T03:41:20.436Z,20.40
2018-06-21T03:43:49.636Z,20.40
2018-06-21T03:46:18.802Z,20.10
2018-06-21T03:48:48.010Z,20.20
2018-06-21T03:51:17.142Z,20.30
2018-06-21T03:53:46.308Z,20.50
2018-06-21T03:56:15.511Z,20.40
2018-06-21T03:58:44.750Z,20.60
2018-06-21T04:01:14.004Z,20.50
2018-06-21T04:03:43.231Z,20.50
2018-06-21T04:06:12.415Z,20.30
2018-06-21T04:08:41.567Z,20.80
2018-06-21T04:11:10.811Z,20.80
2018-06-21T04:13:39.994Z,20.80
2018-06-21T04:16:09.169Z,20.80
2018-06-21T04:18:38.498Z,21.00
2018-06-21T04:21:09.119Z,20.90
2018-06-21T04:23:38.277Z,21.10
2018-06-21T04:26:07.445Z,20.80
2018-06-21T04:28:36.597Z,20.90
2018-06-21T04:31:05.741Z,20.90
2018-06-21T04:33:34.909Z,20.90
2018-06-21T04:36:04.089Z,20.80
2018-06-21T04:38:33.270Z,21.10
2018-06-21T04:41:02.395Z,21.40
2018-06-21T04:43:31.643Z,21.40
2018-06-21T04:46:00.899Z,21.30
2018-06-21T04:48:30.115Z,21.10
2018-06-21T04:50:59.248Z,21.10
2018-06-21T04:53:28.480Z,21.40
2018-06-21T04:55:57.630Z,21.80
2018-06-21T04:58:26.844Z,22.00
2018-06-21T05:00:56.068Z,22.00
2018-06-21T05:03:25.296Z,22.00
2018-06-21T05:05:54.519Z,22.30
2018-06-21T05:08:23.701Z,22.20
2018-06-21T05:10:52.859Z,22.10
2018-06-21T05:13:22.139Z,22.30
2018-06-21T05:15:51.393Z,22.20
2018-06-21T05:18:20.670Z,22.10
2018-06-21T05:20:49.787Z,22.10
2018-06-21T05:23:18.945Z,22.40
2018-06-21T05:25:48.181Z,22.60
2018-06-21T05:28:17.338Z,22.50
2018-06-21T05:30:46.474Z,22.80
2018-06-21T05:33:16.594Z,23.20
2018-06-21T05:35:45.712Z,23.00
2018-06-21T05:38:14.835Z,22.60
2018-06-21T05:40:44.013Z,22.80
2018-06-21T05:43:13.146Z,22.90
2018-06-21T05:45:42.257Z,23.40
2018-06-21T05:48:11.427Z,23.40
2018-06-21T05:50:40.561Z,23.60
2018-06-21T05:53:09.731Z,23.70
2018-06-21T05:55:38.858Z,23.50
2018-06-21T05:58:08.040Z,23.70
2018-06-21T06:00:37.206Z,23.60
2018-06-21T06:03:06.409Z,23.50
2018-06-21T06:05:35.534Z,23.70
2018-06-21T06:08:04.709Z,23.80
2018-06-21T06:10:33.906Z,24.00
2018-06-21T06:13:03.073Z,24.20
2018-06-21T06:15:32.230Z,24.40
2018-06-21T06:18:01.362Z,24.40
2018-06-21T06:20:30.476Z,24.40
2018-06-21T06:22:59.622Z,24.60
2018-06-21T06:25:28.842Z,24.80
2018-06-21T06:27:57.995Z,24.80
2018-06-21T06:30:27.170Z,25.00
2018-06-21T06:32:56.329Z,25.00
2018-06-21T06:35:30.886Z,25.00
2018-06-21T06:38:00.951Z,25.30
2018-06-21T06:40:30.307Z,25.20
2018-06-21T06:42:59.397Z,25.40
2018-06-21T06:45:28.579Z,25.50
2018-06-21T06:47:57.727Z,25.40
2018-06-21T06:50:26.932Z,25.80
2018-06-21T06:52:56.069Z,26.10
2018-06-21T06:55:25.181Z,26.10
2018-06-21T06:57:54.366Z,26.50
2018-06-21T07:00:23.595Z,26.30
2018-06-21T07:02:52.827Z,26.80
2018-06-21T07:05:21.926Z,26.60
2018-06-21T07:07:51.070Z,26.60
2018-06-21T07:10:20.256Z,27.00
2018-06-21T07:12:49.422Z,27.20
2018-06-21T07:15:18.616Z,27.20
2018-06-21T07:17:47.737Z,26.80
2018-06-21T07:20:16.896Z,26.90
2018-06-21T07:22:46.024Z,26.50
2018-06-21T07:25:15.177Z,26.90
2018-06-21T07:27:44.272Z,26.80
2018-06-21T07:30:13.523Z,26.40
2018-06-21T07:32:42.742Z,26.40
2018-06-21T07:35:12.088Z,26.40
2018-06-21T07:37:41.270Z,26.10
2018-06-21T07:40:10.432Z,26.20
2018-06-21T07:42:41.717Z,26.40
2018-06-21T07:45:10.871Z,26.50
2018-06-21T07:47:39.970Z,26.50
2018-06-21T07:50:09.170Z,26.70
2018-06-21T07:52:38.327Z,26.80
2018-06-21T07:55:07.551Z,27.10
2018-06-21T07:57:36.709Z,27.40
2018-06-21T08:00:05.908Z,27.30
2018-06-21T08:02:35.124Z,27.40
2018-06-21T08:05:04.257Z,27.90
2018-06-21T08:07:33.401Z,27.20
2018-06-21T08:10:02.601Z,27.20
2018-06-21T08:12:31.722Z,27.50
2018-06-21T08:15:00.863Z,27.90
2018-06-21T08:17:30.036Z,28.50
2018-06-21T08:19:59.237Z,28.50
2018-06-21T08:22:28.479Z,28.20
2018-06-21T08:24:57.634Z,28.20
2018-06-21T08:27:26.737Z,27.80
2018-06-21T08:29:55.921Z,28.00
2018-06-21T08:32:25.128Z,28.60
2018-06-21T08:34:54.286Z,28.60
2018-06-21T08:37:23.385Z,28.60
2018-06-21T08:39:52.604Z,28.20
2018-06-21T08:42:21.734Z,27.90
2018-06-21T08:44:50.937Z,28.00
2018-06-21T08:47:20.235Z,28.10
2018-06-21T08:49:49.418Z,28.40
2018-06-21T08:52:18.497Z,28.70
2018-06-21T08:54:47.661Z,29.00
2018-06-21T08:57:16.877Z,28.80
2018-06-21T08:59:46.033Z,28.70
2018-06-21T09:02:15.293Z,28.70
2018-06-21T09:04:44.489Z,28.80
2018-06-21T09:07:13.630Z,28.10
2018-06-21T09:09:42.810Z,28.00
2018-06-21T09:12:11.931Z,28.00
2018-06-21T09:14:41.178Z,28.00
2018-06-21T09:17:10.356Z,27.80
2018-06-21T09:19:39.534Z,27.60
2018-06-21T09:22:08.671Z,27.90
2018-06-21T09:24:37.862Z,28.40
2018-06-21T09:27:07.106Z,28.90
2018-06-21T09:29:36.478Z,28.60
2018-06-21T09:32:05.578Z,28.40
2018-06-21T09:34:34.800Z,27.90
2018-06-21T09:37:04.013Z,28.30
2018-06-21T09:39:38.559Z,28.70
2018-06-21T09:42:12.909Z,29.30
2018-06-21T09:44:47.434Z,29.50
2018-06-21T09:47:21.977Z,29.60
2018-06-21T09:49:51.091Z,29.50
2018-06-21T09:52:20.244Z,29.70
2018-06-21T09:54:49.388Z,29.40
2018-06-21T09:57:18.626Z,29.40
2018-06-21T09:59:47.815Z,28.90
2018-06-21T10:02:16.957Z,29.00
2018-06-21T10:04:46.089Z,29.20
2018-06-21T10:07:15.268Z,29.10
2018-06-21T10:09:44.415Z,29.30
2018-06-21T10:12:13.592Z,29.40
2018-06-21T10:14:42.760Z,29.70
2018-06-21T10:17:11.938Z,30.00
2018-06-21T10:19:42.068Z,29.90
2018-06-21T10:22:11.154Z,29.30
2018-06-21T10:24:40.232Z,29.20
2018-06-21T10:27:09.402Z,29.60
2018-06-21T10:29:38.531Z,29.70
2018-06-21T10:32:07.791Z,29.40
2018-06-21T10:34:36.972Z,29.80
2018-06-21T10:37:06.112Z,29.80
2018-06-21T10:39:35.257Z,30.70
2018-06-21T10:42:04.349Z,30.10
2018-06-21T10:44:33.485Z,30.00
2018-06-21T10:47:02.599Z,29.30
2018-06-21T10:49:31.744Z,27.60
2018-06-21T10:52:00.921Z,27.40
2018-06-21T10:54:30.084Z,26.70
2018-06-21T10:56:59.227Z,25.80
2018-06-21T10:59:28.398Z,25.00
2018-06-21T11:01:57.544Z,24.60
2018-06-21T11:04:26.661Z,23.80
2018-06-21T11:06:55.802Z,23.10
2018-06-21T11:09:25.230Z,21.60
2018-06-21T11:11:54.443Z,19.90
2018-06-21T11:14:23.618Z,18.80
2018-06-21T11:16:52.796Z,18.40
2018-06-21T11:19:21.896Z,18.60
2018-06-21T11:21:51.047Z,18.90
2018-06-21T11:24:20.265Z,19.80
2018-06-21T11:26:49.383Z,20.70
2018-06-21T11:29:18.468Z,21.40
2018-06-21T11:31:47.598Z,21.20
2018-06-21T11:34:16.824Z,21.00
2018-06-21T11:36:45.964Z,22.20
2018-06-21T11:39:15.128Z,23.00
2018-06-21T11:41:44.240Z,24.30
2018-06-21T11:44:13.421Z,24.20
2018-06-21T11:46:42.632Z,23.70
2018-06-21T11:49:11.842Z,23.80
2018-06-21T11:51:41.137Z,22.50
2018-06-21T11:54:10.301Z,21.30
2018-06-21T11:56:39.508Z,21.50
2018-06-21T11:59:08.701Z,21.80
2018-06-21T12:01:37.844Z,23.20
2018-06-21T12:04:06.997Z,23.60
2018-06-21T12:06:36.167Z,22.60
2018-06-21T12:09:08.897Z,21.10
2018-06-21T12:11:38.069Z,20.00
2018-06-21T12:14:07.565Z,19.80
2018-06-21T12:16:37.083Z,19.90
2018-06-21T12:19:06.329Z,19.30
2018-06-21T12:21:36.145Z,18.50
2018-06-21T12:24:05.797Z,18.10
2018-06-21T12:26:35.137Z,17.30
2018-06-21T12:29:04.300Z,16.70
2018-06-21T12:31:38.353Z,16.50
2018-06-21T12:34:08.623Z,16.60
2018-06-21T12:36:38.405Z,16.30
2018-06-21T12:39:08.793Z,15.40
2018-06-21T12:41:39.218Z,14.80
2018-06-21T12:44:08.357Z,14.50
2018-06-21T12:46:38.470Z,14.50
2018-06-21T12:49:07.621Z,14.20
2018-06-21T12:51:37.536Z,14.40
2018-06-21T12:54:07.405Z,14.50
2018-06-21T12:56:36.573Z,14.40
2018-06-21T12:59:05.780Z,14.20
2018-06-21T13:01:34.954Z,14.60
2018-06-21T13:04:04.226Z,14.60
2018-06-21T13:06:33.465Z,14.70
2018-06-21T13:09:19.801Z,14.50
2018-06-21T13:12:34.665Z,14.30
2018-06-21T13:15:03.822Z,14.40
2018-06-21T13:17:33.193Z,14.50
2018-06-21T13:20:03.565Z,14.70
2018-06-21T13:22:32.649Z,15.10
2018-06-21T13:25:01.855Z,15.40
2018-06-21T13:27:30.980Z,15.90
2018-06-21T13:30:00.185Z,16.70
2018-06-21T13:32:29.396Z,20.70
2018-06-21T13:34:58.533Z,24.70
2018-06-21T13:37:27.758Z,23.70
2018-06-21T13:39:56.905Z,23.20
2018-06-21T13:42:26.086Z,21.90
2018-06-21T13:44:55.026Z,26.70
2018-06-21T13:47:24.209Z,28.70
2018-06-21T13:49:53.361Z,29.30
2018-06-21T13:52:23.497Z,24.00
2018-06-21T13:54:52.635Z,22.10
2018-06-21T13:57:21.813Z,21.70
2018-06-21T13:59:51.075Z,19.90
2018-06-21T14:02:20.232Z,18.40
2018-06-21T14:04:49.394Z,17.90
2018-06-21T14:07:18.569Z,16.80
2018-06-21T14:09:47.747Z,16.30
2018-06-21T14:12:16.913Z,16.20
2018-06-21T14:14:46.041Z,16.10
2018-06-21T14:17:16.146Z,16.30
2018-06-21T14:19:45.262Z,16.60
2018-06-21T14:22:14.491Z,16.60
2018-06-21T14:24:43.816Z,16.60
2018-06-21T14:27:12.996Z,16.30
2018-06-21T14:29:42.052Z,16.20
2018-06-21T14:32:11.256Z,16.10
2018-06-21T14:34:40.386Z,15.90
2018-06-21T14:37:09.554Z,15.80
2018-06-21T14:39:38.759Z,16.50
2018-06-21T14:42:08.163Z,17.30
2018-06-21T14:44:37.435Z,18.30
2018-06-21T14:47:06.592Z,20.40
2018-06-21T14:49:35.808Z,23.40
2018-06-21T14:52:04.967Z,22.10
2018-06-21T14:54:34.253Z,20.10
2018-06-21T14:57:03.436Z,21.20
2018-06-21T14:59:32.710Z,24.60
2018-06-21T15:02:01.831Z,28.20
2018-06-21T15:04:30.991Z,30.90
2018-06-21T15:07:00.129Z,31.20
2018-06-21T15:09:29.221Z,32.30
2018-06-21T15:11:58.393Z,32.10
2018-06-21T15:14:27.535Z,34.10
2018-06-21T15:16:56.745Z,32.80
2018-06-21T15:19:25.907Z,32.90
2018-06-21T15:21:55.054Z,31.70
2018-06-21T15:24:24.240Z,31.20
2018-06-21T15:26:53.430Z,31.30
2018-06-21T15:29:22.599Z,32.30
2018-06-21T15:31:51.732Z,32.30
2018-06-21T15:34:20.867Z,33.10
2018-06-21T15:36:50.013Z,35.70
2018-06-21T15:39:23.053Z,31.50
2018-06-21T15:41:52.247Z,30.10
2018-06-21T15:44:21.449Z,29.10
2018-06-21T15:46:50.554Z,26.80
2018-06-21T15:49:19.710Z,27.10
2018-06-21T15:51:48.915Z,25.60
2018-06-21T15:54:18.100Z,24.60
2018-06-21T15:56:47.331Z,27.80
2018-06-21T15:59:16.461Z,28.20
2018-06-21T16:01:45.646Z,28.90
2018-06-21T16:04:14.831Z,29.80
2018-06-21T16:06:44.018Z,31.70
2018-06-21T16:09:13.149Z,31.60
2018-06-21T16:11:42.329Z,30.90
2018-06-21T16:14:13.947Z,30.60
2018-06-21T16:16:43.073Z,31.30
2018-06-21T16:19:12.258Z,30.90
2018-06-21T16:21:41.385Z,31.30
2018-06-21T16:24:10.599Z,32.10
2018-06-21T16:26:39.656Z,31.70
2018-06-21T16:29:08.831Z,33.00
2018-06-21T16:31:37.969Z,29.90
2018-06-21T16:34:07.118Z,25.30
2018-06-21T16:36:36.314Z,22.80
2018-06-21T16:39:09.333Z,20.90
2018-06-21T16:41:38.642Z,20.20
2018-06-21T16:44:07.835Z,19.30
2018-06-21T16:46:36.938Z,20.30
2018-06-21T16:49:06.546Z,24.10
2018-06-21T16:51:35.789Z,24.30
2018-06-21T16:54:04.932Z,25.80
2018-06-21T16:56:34.919Z,28.20
2018-06-21T16:59:04.135Z,29.40
2018-06-21T17:01:33.404Z,27.60
2018-06-21T17:04:03.046Z,22.80
2018-06-21T17:06:32.373Z,21.00
2018-06-21T17:09:01.667Z,19.50
2018-06-21T17:11:30.763Z,19.00
2018-06-21T17:13:59.982Z,18.40
2018-06-21T17:16:29.165Z,20.70
2018-06-21T17:18:58.384Z,20.80
2018-06-21T17:21:27.582Z,20.40
2018-06-21T17:23:56.715Z,19.90
2018-06-21T17:26:25.882Z,19.60
2018-06-21T17:28:55.097Z,19.00
2018-06-21T17:31:24.309Z,20.50
2018-06-21T17:33:53.476Z,21.50
2018-06-21T17:36:22.631Z,22.20
2018-06-21T17:38:51.768Z,21.00
2018-06-21T17:41:20.946Z,21.50
2018-06-21T17:43:50.141Z,23.60
2018-06-21T17:46:19.276Z,23.50
2018-06-21T17:48:48.451Z,23.60
2018-06-21T17:51:17.609Z,24.40
2018-06-21T17:53:46.726Z,23.80
2018-06-21T17:56:15.946Z,23.70
2018-06-21T17:58:45.066Z,21.30
2018-06-21T18:01:14.144Z,20.70
2018-06-21T18:03:43.314Z,21.30
2018-06-21T18:06:12.489Z,19.70
2018-06-21T18:08:41.697Z,19.20
2018-06-21T18:11:10.875Z,19.10
2018-06-21T18:13:40.029Z,19.10
2018-06-21T18:16:09.276Z,18.10
2018-06-21T18:18:38.486Z,17.80
2018-06-21T18:21:07.714Z,17.40
2018-06-21T18:23:36.779Z,17.00
2018-06-21T18:26:06.577Z,16.60
2018-06-21T18:28:35.824Z,16.40
2018-06-21T18:31:04.991Z,16.60
2018-06-21T18:33:35.221Z,16.50
2018-06-21T18:36:04.672Z,16.60
2018-06-21T18:38:33.826Z,16.60
2018-06-21T18:41:02.994Z,16.30
2018-06-21T18:43:32.146Z,16.20
2018-06-21T18:46:01.333Z,16.20
2018-06-21T18:48:30.461Z,16.30
2018-06-21T18:50:59.606Z,16.10
2018-06-21T18:53:28.705Z,15.90
2018-06-21T18:55:57.970Z,15.80
2018-06-21T18:58:27.142Z,15.60
2018-06-21T19:00:56.282Z,15.80
2018-06-21T19:03:25.461Z,15.60
2018-06-21T19:05:54.649Z,15.60
2018-06-21T19:08:29.300Z,15.90
2018-06-21T19:11:03.753Z,15.70
2018-06-21T19:13:32.860Z,15.80
2018-06-21T19:16:05.130Z,15.40
2018-06-21T19:18:34.261Z,15.30
2018-06-21T19:21:03.442Z,15.00
2018-06-21T19:23:32.619Z,14.90
2018-06-21T19:26:01.532Z,14.70
2018-06-21T19:28:31.150Z,14.70
2018-06-21T19:31:00.293Z,14.50
2018-06-21T19:33:29.445Z,14.60
2018-06-21T19:35:58.838Z,14.40
2018-06-21T19:38:28.262Z,14.40
2018-06-21T19:40:57.601Z,14.20
2018-06-21T19:43:26.793Z,14.30
2018-06-21T19:45:55.958Z,14.20
2018-06-21T19:48:25.212Z,14.20
2018-06-21T19:50:54.357Z,14.10
2018-06-21T19:53:23.526Z,14.00
2018-06-21T19:55:52.650Z,14.00
2018-06-21T19:58:21.840Z,13.90
2018-06-21T20:00:51.150Z,13.90
2018-06-21T20:03:20.345Z,13.80
2018-06-21T20:05:49.501Z,13.70
2018-06-21T20:08:18.626Z,13.90
2018-06-21T20:10:51.914Z,13.80
2018-06-21T20:13:21.080Z,13.70
2018-06-21T20:15:52.103Z,13.60
2018-06-21T20:18:22.114Z,13.70
2018-06-21T20:20:51.986Z,13.60
2018-06-21T20:23:21.453Z,13.60
2018-06-21T20:25:51.303Z,13.80
2018-06-21T20:28:20.525Z,13.60
2018-06-21T20:30:49.846Z,13.70
2018-06-21T20:33:19.123Z,13.60
2018-06-21T20:35:48.696Z,13.70
2018-06-21T20:38:17.815Z,13.40
2018-06-21T20:40:46.990Z,13.40
2018-06-21T20:43:16.332Z,13.40
2018-06-21T20:45:45.527Z,13.50
2018-06-21T20:48:15.062Z,13.50
2018-06-21T20:50:44.530Z,13.50
2018-06-21T20:53:13.668Z,13.40
2018-06-21T20:55:43.015Z,13.30
2018-06-21T20:58:12.231Z,13.30
2018-06-21T21:00:41.394Z,13.00
2018-06-21T21:03:10.808Z,13.00
2018-06-21T21:05:40.661Z,13.10
2018-06-21T21:08:09.780Z,13.20
2018-06-21T21:10:38.943Z,13.10
2018-06-21T21:13:08.084Z,13.30
2018-06-21T21:15:37.152Z,13.30
2018-06-21T21:18:06.315Z,13.40
2018-06-21T21:20:36.581Z,13.10
2018-06-21T21:23:05.869Z,13.00
2018-06-21T21:25:34.999Z,13.00
2018-06-21T21:28:04.164Z,12.90
2018-06-21T21:30:33.312Z,13.30
2018-06-21T21:33:02.471Z,12.90
2018-06-21T21:35:31.599Z,12.90
2018-06-21T21:38:00.815Z,13.00
2018-06-21T21:40:29.991Z,12.90
2018-06-21T21:42:59.150Z,13.10
2018-06-21T21:45:28.237Z,13.20
2018-06-21T21:47:57.408Z,13.20
2018-06-21T21:50:26.490Z,13.10
2018-06-21T21:52:55.640Z,13.10
2018-06-21T21:55:24.767Z,12.80
2018-06-21T21:57:53.889Z,13.00
2018-06-21T22:00:52.682Z,13.00
2018-06-21T22:03:21.757Z,12.90
2018-06-21T22:05:50.915Z,12.70
2018-06-21T22:08:20.010Z,12.50
2018-06-21T22:10:49.425Z,12.70
2018-06-21T22:13:18.997Z,12.80
2018-06-21T22:15:48.062Z,12.90
2018-06-21T22:18:17.190Z,12.90
2018-06-21T22:20:46.319Z,12.90
2018-06-21T22:23:15.474Z,12.80
2018-06-21T22:25:44.606Z,12.80
2018-06-21T22:28:13.701Z,12.70
2018-06-21T22:30:42.795Z,12.60
2018-06-21T22:33:11.921Z,12.70
2018-06-21T22:35:40.858Z,12.70
2018-06-21T22:38:09.912Z,12.70
2018-06-21T22:40:39.038Z,12.70
2018-06-21T22:43:08.153Z,12.50
2018-06-21T22:45:37.233Z,12.50
2018-06-21T22:48:06.321Z,12.50
2018-06-21T22:50:35.519Z,12.30
2018-06-21T22:53:04.697Z,12.60
2018-06-21T22:55:33.821Z,12.50
2018-06-21T22:58:02.990Z,12.60
2018-06-21T23:00:32.128Z,12.40
2018-06-21T23:03:01.217Z,12.30
2018-06-21T23:05:30.407Z,12.50
2018-06-21T23:07:59.590Z,12.50
2018-06-21T23:10:28.726Z,12.50
2018-06-21T23:12:57.873Z,12.40
2018-06-21T23:15:26.992Z,12.30
2018-06-21T23:17:56.054Z,12.30
2018-06-21T23:20:25.246Z,12.30
2018-06-21T23:22:54.399Z,12.30
2018-06-21T23:25:23.509Z,12.20
2018-06-21T23:27:52.574Z,12.10
2018-06-21T23:30:21.660Z,12.20
2018-06-21T23:32:50.842Z,12.10
2018-06-21T23:35:20.009Z,12.20
2018-06-21T23:37:49.187Z,12.20
2018-06-21T23:40:18.323Z,12.20
2018-06-21T23:42:47.462Z,12.50
2018-06-21T23:45:16.628Z,12.00
2018-06-21T23:47:45.753Z,12.10
2018-06-21T23:50:14.852Z,12.00
2018-06-21T23:52:44.011Z,12.10
2018-06-21T23:55:13.229Z,11.90
2018-06-21T23:57:42.342Z,11.90
